Time,TemperatureF,DewpointF,PressureIn,WindDirection,WindDirectionDegrees,WindSpeedMPH,WindSpeedGustMPH,Humidity,HourlyPrecipIn,Conditions,Clouds,dailyrainin,SolarRadiationWatts/m^2,SoftwareType,DateUTC
2013-04-09 00:00:00,38.0,36.0,-100.00,NE,45,5.0,-999.0,92,-99.99,,,-99.99,0.000000,,2013-04-09 04:00:00,
2013-04-09 00:43:00,38.0,36.0,-100.00,NE,45,5.0,-999.0,92,-99.99,,,-99.99,0.000000,,2013-04-09 04:43:00,
2013-04-09 00:53:00,38.0,36.0,-100.00,NE,45,5.0,-999.0,92,-99.99,,,-99.99,0.000000,,2013-04-09 04:53:00,
2013-04-09 01:00:00,38.0,36.0,-100.00,East,90,4.0,-999.0,93,-99.99,,,-99.99,0.000000,,2013-04-09 05:00:00,
2013-04-09 01:43:00,38.0,36.0,-100.00,East,90,4.0,-999.0,93,-99.99,,,-99.99,0.000000,,2013-04-09 05:43:00,
2013-04-09 01:52:00,38.0,36.0,-100.00,East,90,4.0,-999.0,93,-99.99,,,-99.99,0.000000,,2013-04-09 05:52:00,
2013-04-09 02:00:00,38.0,36.0,-100.00,SE,135,4.0,-999.0,93,-99.99,,,-99.99,0.000000,,2013-04-09 06:00:00,
2013-04-09 02:42:00,38.0,36.0,-100.00,SE,135,4.0,-999.0,93,-99.99,,,-99.99,0.000000,,2013-04-09 06:42:00,
2013-04-09 02:52:00,38.0,36.0,-100.00,SE,135,4.0,-999.0,93,-99.99,,,-99.99,0.000000,,2013-04-09 06:52:00,
2013-04-09 03:00:00,38.0,36.0,-100.00,ESE,112,3.0,-999.0,93,-99.99,,,-99.99,0.000000,,2013-04-09 07:00:00,
2013-04-09 03:42:00,38.0,36.0,-100.00,ESE,112,3.0,-999.0,93,-99.99,,,-99.99,0.000000,,2013-04-09 07:42:00,
2013-04-09 03:53:00,38.0,36.0,-100.00,ESE,112,3.0,-999.0,93,-99.99,,,-99.99,0.000000,,2013-04-09 07:53:00,
2013-04-09 04:00:00,38.0,36.0,-100.00,East,90,2.0,-999.0,93,-99.99,,,-99.99,0.000000,,2013-04-09 08:00:00,
2013-04-09 04:42:00,38.0,36.0,-100.00,East,90,2.0,-999.0,93,-99.99,,,-99.99,0.000000,,2013-04-09 08:42:00,
2013-04-09 04:52:00,38.0,36.0,-100.00,East,90,2.0,-999.0,93,-99.99,,,-99.99,0.000000,,2013-04-09 08:52:00,
2013-04-09 05:00:00,38.0,36.0,-100.00,East,90,4.0,-999.0,93,-99.99,,,-99.99,0.000000,,2013-04-09 09:00:00,
2013-04-09 05:44:00,38.0,36.0,-100.00,East,90,4.0,-999.0,93,-99.99,,,-99.99,0.000000,,2013-04-09 09:44:00,
2013-04-09 05:53:00,38.0,36.0,-100.00,East,90,4.0,-999.0,93,-99.99,,,-99.99,0.000000,,2013-04-09 09:53:00,
2013-04-09 06:00:00,38.0,36.0,-100.00,ENE,67,5.0,-999.0,93,-99.99,,,-99.99,0.000000,,2013-04-09 10:00:00,
2013-04-09 06:43:00,38.0,36.0,-100.00,ENE,67,5.0,-999.0,93,-99.99,,,-99.99,0.000000,,2013-04-09 10:43:00,
2013-04-09 06:53:00,38.0,36.0,-100.00,ENE,67,5.0,-999.0,93,-99.99,,,-99.99,0.000000,,2013-04-09 10:53:00,
2013-04-09 07:00:00,39.0,37.0,-100.00,East,90,6.0,-999.0,94,-99.99,,,-99.99,0.000000,,2013-04-09 11:00:00,
2013-04-09 07:42:00,39.0,37.0,-100.00,East,90,6.0,-999.0,94,-99.99,,,-99.99,0.000000,,2013-04-09 11:42:00,
2013-04-09 07:52:00,39.0,37.0,-100.00,East,90,6.0,-999.0,94,-99.99,,,-99.99,0.000000,,2013-04-09 11:52:00,
2013-04-09 08:00:00,40.0,38.0,-100.00,ESE,112,7.0,-999.0,94,-99.99,,,-99.99,10.440000,,2013-04-09 12:00:00,
2013-04-09 08:43:00,40.0,38.0,-100.00,ESE,112,7.0,-999.0,94,-99.99,,,-99.99,10.440000,,2013-04-09 12:43:00,
2013-04-09 08:53:00,40.0,38.0,-100.00,ESE,112,7.0,-999.0,94,-99.99,,,-99.99,10.440000,,2013-04-09 12:53:00,
2013-04-09 09:00:00,42.0,40.0,-100.00,ESE,112,7.0,-999.0,93,-99.99,,,-99.99,62.639999,,2013-04-09 13:00:00,
2013-04-09 09:43:00,42.0,40.0,-100.00,ESE,112,7.0,-999.0,93,-99.99,,,-99.99,62.639999,,2013-04-09 13:43:00,
2013-04-09 09:53:00,42.0,40.0,-100.00,ESE,112,7.0,-999.0,93,-99.99,,,-99.99,62.639999,,2013-04-09 13:53:00,
2013-04-09 10:00:00,45.0,41.0,-100.00,ESE,112,7.0,-999.0,82,0.01,,,-99.99,47.560001,,2013-04-09 14:00:00,
2013-04-09 10:43:00,45.0,41.0,-100.00,ESE,112,7.0,-999.0,82,0.01,,,-99.99,47.560001,,2013-04-09 14:43:00,
2013-04-09 10:52:00,45.0,41.0,-100.00,ESE,112,7.0,-999.0,82,0.01,,,-99.99,47.560001,,2013-04-09 14:52:00,
2013-04-09 11:00:00,46.0,41.0,-100.00,East,90,7.0,-999.0,84,0.01,,,-99.99,15.080000,,2013-04-09 15:00:00,
2013-04-09 11:44:00,46.0,41.0,-100.00,East,90,7.0,-999.0,84,0.01,,,-99.99,15.080000,,2013-04-09 15:44:00,
2013-04-09 11:53:00,46.0,41.0,-100.00,East,90,7.0,-999.0,84,0.01,,,-99.99,15.080000,,2013-04-09 15:53:00,
2013-04-09 13:00:00,51.0,45.0,-100.00,ESE,112,5.0,-999.0,79,-99.99,,,-99.99,113.680000,,2013-04-09 17:00:00,
2013-04-09 13:43:00,51.0,45.0,-100.00,ESE,112,5.0,-999.0,79,-99.99,,,-99.99,113.680000,,2013-04-09 17:43:00,
2013-04-09 13:54:00,51.0,45.0,-100.00,ESE,112,5.0,-999.0,79,-99.99,,,-99.99,113.680000,,2013-04-09 17:54:00,
2013-04-09 14:00:00,56.0,48.0,-100.00,East,90,4.0,-999.0,73,-99.99,,,-99.99,162.399994,,2013-04-09 18:00:00,
2013-04-09 14:43:00,56.0,48.0,-100.00,East,90,4.0,-999.0,73,-99.99,,,-99.99,162.399994,,2013-04-09 18:43:00,
2013-04-09 14:53:00,56.0,48.0,-100.00,East,90,4.0,-999.0,73,-99.99,,,-99.99,162.399994,,2013-04-09 18:53:00,
2013-04-09 15:00:00,63.0,51.0,-100.00,SE,135,6.0,-999.0,63,-99.99,,,-99.99,396.720001,,2013-04-09 19:00:00,
2013-04-09 15:53:00,63.0,51.0,-100.00,SE,135,6.0,-999.0,63,-99.99,,,-99.99,396.720001,,2013-04-09 19:53:00,
2013-04-09 16:00:00,66.0,53.0,-100.00,SSE,157,5.0,-999.0,61,-99.99,,,-99.99,161.240005,,2013-04-09 20:00:00,
2013-04-09 16:44:00,66.0,53.0,-100.00,SSE,157,5.0,-999.0,61,-99.99,,,-99.99,161.240005,,2013-04-09 20:44:00,
2013-04-09 16:53:00,66.0,53.0,-100.00,SSE,157,5.0,-999.0,61,-99.99,,,-99.99,161.240005,,2013-04-09 20:53:00,
2013-04-09 17:00:00,67.0,54.0,-100.00,SE,135,2.0,-999.0,63,-99.99,,,-99.99,163.559998,,2013-04-09 21:00:00,
2013-04-09 17:53:00,67.0,54.0,-100.00,SE,135,2.0,-999.0,63,-99.99,,,-99.99,163.559998,,2013-04-09 21:53:00,
2013-04-09 18:00:00,66.0,54.0,-100.00,NNW,337,3.0,-999.0,64,-99.99,,,-99.99,46.400002,,2013-04-09 22:00:00,
2013-04-09 18:43:00,66.0,54.0,-100.00,NNW,337,3.0,-999.0,64,-99.99,,,-99.99,46.400002,,2013-04-09 22:43:00,
2013-04-09 18:53:00,66.0,54.0,-100.00,NNW,337,3.0,-999.0,64,-99.99,,,-99.99,46.400002,,2013-04-09 22:53:00,
2013-04-09 19:00:00,59.0,51.0,-100.00,NNW,337,5.0,-999.0,74,-99.99,,,-99.99,35.959999,,2013-04-09 23:00:00,
2013-04-09 19:43:00,59.0,51.0,-100.00,NNW,337,5.0,-999.0,74,-99.99,,,-99.99,35.959999,,2013-04-09 23:43:00,
2013-04-09 19:53:00,59.0,51.0,-100.00,NNW,337,5.0,-999.0,74,-99.99,,,-99.99,35.959999,,2013-04-09 23:53:00,
2013-04-09 20:00:00,56.0,49.0,-100.00,North,0,6.0,-999.0,78,-99.99,,,-99.99,45.240002,,2013-04-10 00:00:00,
2013-04-09 20:43:00,56.0,49.0,-100.00,North,0,6.0,-999.0,78,-99.99,,,-99.99,45.240002,,2013-04-10 00:43:00,
2013-04-09 20:53:00,56.0,49.0,-100.00,North,0,6.0,-999.0,78,-99.99,,,-99.99,45.240002,,2013-04-10 00:53:00,
2013-04-09 21:00:00,52.0,47.0,-100.00,NNE,22,7.0,-999.0,83,-99.99,,,-99.99,1.160000,,2013-04-10 01:00:00,
2013-04-09 21:43:00,52.0,47.0,-100.00,NNE,22,7.0,-999.0,83,-99.99,,,-99.99,1.160000,,2013-04-10 01:43:00,
2013-04-09 21:53:00,52.0,47.0,-100.00,NNE,22,7.0,-999.0,83,-99.99,,,-99.99,1.160000,,2013-04-10 01:53:00,
2013-04-09 22:00:00,49.0,45.0,-100.00,NE,45,7.0,-999.0,86,-99.99,,,-99.99,0.000000,,2013-04-10 02:00:00,
2013-04-09 22:43:00,49.0,45.0,-100.00,NE,45,7.0,-999.0,86,-99.99,,,-99.99,0.000000,,2013-04-10 02:43:00,
2013-04-09 22:53:00,49.0,45.0,-100.00,NE,45,7.0,-999.0,86,-99.99,,,-99.99,0.000000,,2013-04-10 02:53:00,
2013-04-09 23:00:00,48.0,45.0,-100.00,NE,45,7.0,-999.0,88,-99.99,,,-99.99,0.000000,,2013-04-10 03:00:00,
2013-04-09 23:43:00,48.0,45.0,-100.00,NE,45,7.0,-999.0,88,-99.99,,,-99.99,0.000000,,2013-04-10 03:43:00,
2013-04-09 23:53:00,48.0,45.0,-100.00,NE,45,7.0,-999.0,88,-99.99,,,-99.99,0.000000,,2013-04-10 03:53:00,